Fellsmere, Florida
Current Conditions -  °F | °C
As of 5:53 AM on Saturday 20 Dec 2014 (Local Time) from KVRB Reporting Station
Broken Clouds Broken Clouds  
Wind Chill: 58°   Ceiling: 4400
Heat Index: 58°   Visibility: 10mi
Dew Point: 55°   Wind: 3mph
Humidity: 90%   Direction: 250°WSW
Pressure: 30.07"   Gusts: NA
Location:  27.77°N, 80.6°W
Report Text: KVRB 201053Z AUTO 25003KT 10SM BKN044 BKN050 14/13 A3007 RMK AO2 SLP182 T01440128
Loading
Personal Weather Stations






























Interactive Weather Map New forecast layout! Learn more

10-Day Weather Forecast

Advertisements
Track Severe Weather on mobile